Terminal Aerodrome Forecast
Issued by NWS

Home | Current Version | Previous Version | Text Only | Print | Product List | Glossary On
Versions: 1 2 3 4 5 6 7 8 9 10 11 12 13 14 15
000
FTUS41 KAKQ 211724
TAFPHF
TAF
KPHF 211724Z 2118/2218 09009KT P6SM BKN250
     FM212300 13005KT P6SM BKN250
     FM220300 18004KT P6SM BKN250
     FM221100 17004KT 5SM BR BKN100
     FM221300 20005KT P6SM BKN070=

USA.gov is the U.S. government's official web portal to all federal, state and local government web resources and services.